createdAt,value
2022-09-24T00:01:38.573Z,19.50
2022-09-24T00:04:12.207Z,19.50
2022-09-24T00:06:48.519Z,19.50
2022-09-24T00:09:22.265Z,19.50
2022-09-24T00:11:53.365Z,19.50
2022-09-24T00:14:20.287Z,19.40
2022-09-24T00:16:47.072Z,19.40
2022-09-24T00:19:14.679Z,19.40
2022-09-24T00:21:42.284Z,19.40
2022-09-24T00:24:32.835Z,19.40
2022-09-24T00:27:00.333Z,19.40
2022-09-24T00:29:27.194Z,19.40
2022-09-24T00:31:54.259Z,19.40
2022-09-24T00:34:22.280Z,19.40
2022-09-24T00:36:49.105Z,19.40
2022-09-24T00:39:16.637Z,19.30
2022-09-24T00:41:48.974Z,19.30
2022-09-24T00:44:40.986Z,19.30
2022-09-24T00:47:27.345Z,19.30
2022-09-24T00:50:06.113Z,19.30
2022-09-24T00:52:35.407Z,19.30
2022-09-24T00:55:02.227Z,19.30
2022-09-24T00:57:29.372Z,19.30
2022-09-24T00:59:56.827Z,19.20
2022-09-24T01:02:24.310Z,19.30
2022-09-24T01:04:55.681Z,19.20
2022-09-24T01:07:23.374Z,19.20
2022-09-24T01:09:50.215Z,19.30
2022-09-24T01:12:32.208Z,19.20
2022-09-24T01:15:08.273Z,19.20
2022-09-24T01:18:01.462Z,19.20
2022-09-24T01:20:29.769Z,19.20
2022-09-24T01:23:50.591Z,19.20
2022-09-24T01:26:52.404Z,19.20
2022-09-24T01:30:11.271Z,19.20
2022-09-24T01:32:46.725Z,19.20
2022-09-24T01:35:43.851Z,19.10
2022-09-24T01:38:22.437Z,19.10
2022-09-24T01:40:51.914Z,19.10
2022-09-24T01:43:24.159Z,19.10
2022-09-24T01:45:51.366Z,19.10
2022-09-24T01:48:21.249Z,19.10
2022-09-24T01:51:27.653Z,19.10
2022-09-24T01:54:33.084Z,19.10
2022-09-24T01:57:06.007Z,19.00
2022-09-24T01:59:38.238Z,19.00
2022-09-24T02:02:20.199Z,19.00
2022-09-24T02:04:53.600Z,19.00
2022-09-24T02:07:40.483Z,18.90
2022-09-24T02:10:18.714Z,18.90
2022-09-24T02:12:52.652Z,18.90
2022-09-24T02:15:34.736Z,18.90
2022-09-24T02:18:07.333Z,18.90
2022-09-24T02:20:36.775Z,18.80
2022-09-24T02:23:04.881Z,18.80
2022-09-24T02:25:42.179Z,18.80
2022-09-24T02:28:09.253Z,18.70
2022-09-24T02:30:46.544Z,18.70
2022-09-24T02:33:34.287Z,18.70
2022-09-24T02:36:02.116Z,18.70
2022-09-24T02:38:28.876Z,18.60
2022-09-24T02:40:56.641Z,18.60
2022-09-24T02:43:23.503Z,18.50
2022-09-24T02:45:50.246Z,18.50
2022-09-24T02:48:17.008Z,18.50
2022-09-24T02:50:44.031Z,18.50
2022-09-24T02:53:11.007Z,18.50
2022-09-24T02:55:37.832Z,18.40
2022-09-24T02:58:04.586Z,18.40
2022-09-24T03:00:31.438Z,18.40
2022-09-24T03:02:58.392Z,18.40
2022-09-24T03:05:25.391Z,18.30
2022-09-24T03:07:52.258Z,18.30
2022-09-24T03:10:19.275Z,18.30
2022-09-24T03:12:46.129Z,18.30
2022-09-24T03:15:13.073Z,18.30
2022-09-24T03:17:39.895Z,18.20
2022-09-24T03:20:07.452Z,18.20
2022-09-24T03:22:34.331Z,18.20
2022-09-24T03:25:02.575Z,18.20
2022-09-24T03:27:29.638Z,18.20
2022-09-24T03:30:14.871Z,18.20
2022-09-24T03:32:41.635Z,18.20
2022-09-24T03:35:08.786Z,18.20
2022-09-24T03:37:38.600Z,18.10
2022-09-24T03:40:07.871Z,18.10
2022-09-24T03:42:35.075Z,18.10
2022-09-24T03:45:01.869Z,18.00
2022-09-24T03:47:29.279Z,18.00
2022-09-24T03:49:56.198Z,18.00
2022-09-24T03:52:23.279Z,17.90
2022-09-24T03:54:50.734Z,17.80
2022-09-24T03:57:17.904Z,17.80
2022-09-24T03:59:45.360Z,17.80
2022-09-24T04:02:12.233Z,17.80
2022-09-24T04:04:39.248Z,17.70
2022-09-24T04:07:06.347Z,17.70
2022-09-24T04:09:33.105Z,17.70
2022-09-24T04:11:59.946Z,17.60
2022-09-24T04:14:27.108Z,17.60
2022-09-24T04:16:53.884Z,17.70
2022-09-24T04:19:20.891Z,17.60
2022-09-24T04:21:47.703Z,17.60
2022-09-24T04:24:14.498Z,17.60
2022-09-24T04:26:41.227Z,17.60
2022-09-24T04:29:08.597Z,17.60
2022-09-24T04:31:35.443Z,17.60
2022-09-24T04:34:02.253Z,17.60
2022-09-24T04:36:29.013Z,17.60
2022-09-24T04:38:57.212Z,17.60
2022-09-24T04:41:24.020Z,17.60
2022-09-24T04:43:51.636Z,17.60
2022-09-24T04:46:19.273Z,17.60
2022-09-24T04:48:46.174Z,17.60
2022-09-24T04:51:12.918Z,17.70
2022-09-24T04:53:39.732Z,17.70
2022-09-24T04:56:11.246Z,17.60
2022-09-24T04:58:39.463Z,17.60
2022-09-24T05:01:06.530Z,17.60
2022-09-24T05:03:33.522Z,17.60
2022-09-24T05:06:01.932Z,17.60
2022-09-24T05:08:28.853Z,17.60
2022-09-24T05:10:55.684Z,17.60
2022-09-24T05:13:22.776Z,17.50
2022-09-24T05:15:49.597Z,17.50
2022-09-24T05:18:16.456Z,17.50
2022-09-24T05:20:43.255Z,17.40
2022-09-24T05:23:10.055Z,17.40
2022-09-24T05:25:59.714Z,17.40
2022-09-24T05:28:26.449Z,17.40
2022-09-24T05:30:57.616Z,17.40
2022-09-24T05:33:24.448Z,17.40
2022-09-24T05:35:58.022Z,17.30
2022-09-24T05:38:25.238Z,17.30
2022-09-24T05:40:52.094Z,17.30
2022-09-24T05:43:21.877Z,17.30
2022-09-24T05:45:52.620Z,17.30
2022-09-24T05:48:19.424Z,17.30
2022-09-24T05:50:46.226Z,17.30
2022-09-24T05:53:13.149Z,17.30
2022-09-24T05:55:39.911Z,17.30
2022-09-24T05:58:09.632Z,17.30
2022-09-24T06:00:37.005Z,17.30
2022-09-24T06:03:07.698Z,17.40
2022-09-24T06:05:35.618Z,17.40
2022-09-24T06:08:04.219Z,17.40
2022-09-24T06:10:31.383Z,17.40
2022-09-24T06:12:59.060Z,17.30
2022-09-24T06:15:27.288Z,17.30
2022-09-24T06:17:55.088Z,17.30
2022-09-24T06:20:23.067Z,17.30
2022-09-24T06:22:50.546Z,17.30
2022-09-24T06:25:17.336Z,17.30
2022-09-24T06:27:44.104Z,17.30
2022-09-24T06:30:11.850Z,17.40
2022-09-24T06:32:38.652Z,17.40
2022-09-24T06:35:06.142Z,17.40
2022-09-24T06:37:34.053Z,17.50
2022-09-24T06:40:00.991Z,17.50
2022-09-24T06:42:27.852Z,17.60
2022-09-24T06:44:56.083Z,17.60
2022-09-24T06:47:24.072Z,17.70
2022-09-24T06:49:50.850Z,17.70
2022-09-24T06:52:18.878Z,17.80
2022-09-24T06:54:46.157Z,17.90
2022-09-24T06:57:13.148Z,18.00
2022-09-24T06:59:40.347Z,18.00
2022-09-24T07:02:10.266Z,18.10
2022-09-24T07:04:37.207Z,18.10
2022-09-24T07:07:24.190Z,18.20
2022-09-24T07:09:51.168Z,18.20
2022-09-24T07:12:17.919Z,18.30
2022-09-24T07:14:44.680Z,18.40
2022-09-24T07:17:11.456Z,18.50
2022-09-24T07:19:38.524Z,18.60
2022-09-24T07:22:05.798Z,18.70
2022-09-24T07:24:32.617Z,18.70
2022-09-24T07:26:59.541Z,18.80
2022-09-24T07:29:26.372Z,18.90
2022-09-24T07:31:53.364Z,19.00
2022-09-24T07:34:20.436Z,19.10
2022-09-24T07:36:47.248Z,19.20
2022-09-24T07:39:14.095Z,19.30
2022-09-24T07:41:42.454Z,19.30
2022-09-24T07:44:11.046Z,19.40
2022-09-24T07:46:38.428Z,19.50
2022-09-24T07:49:05.355Z,19.60
2022-09-24T07:51:32.180Z,19.60
2022-09-24T07:53:59.066Z,19.70
2022-09-24T07:56:25.856Z,19.70
